sensor_id;sensor_type;location;lat;lon;timestamp;temperature;humidity
84008;DHT22;74070;50.948;6.954;2024-01-11T00:01:12;-3.60;99.90
84008;DHT22;74070;50.948;6.954;2024-01-11T00:03:39;-3.60;99.90
84008;DHT22;74070;50.948;6.954;2024-01-11T00:06:06;-3.80;99.90
84008;DHT22;74070;50.948;6.954;2024-01-11T00:08:34;-3.80;99.90
84008;DHT22;74070;50.948;6.954;2024-01-11T00:11:00;-3.70;99.90
84008;DHT22;74070;50.948;6.954;2024-01-11T00:13:28;-3.50;99.90
84008;DHT22;74070;50.948;6.954;2024-01-11T00:15:57;-3.50;99.90
84008;DHT22;74070;50.948;6.954;2024-01-11T00:18:25;-3.50;99.90
84008;DHT22;74070;50.948;6.954;2024-01-11T00:20:51;-3.50;99.90
84008;DHT22;74070;50.948;6.954;2024-01-11T00:23:18;-3.40;99.90
84008;DHT22;74070;50.948;6.954;2024-01-11T00:25:44;-3.60;99.90
84008;DHT22;74070;50.948;6.954;2024-01-11T00:28:11;-3.60;99.90
84008;DHT22;74070;50.948;6.954;2024-01-11T00:30:38;-3.70;99.90
84008;DHT22;74070;50.948;6.954;2024-01-11T00:33:06;-3.80;99.90
84008;DHT22;74070;50.948;6.954;2024-01-11T00:35:34;-4.00;99.90
84008;DHT22;74070;50.948;6.954;2024-01-11T00:38:00;-4.10;99.90
84008;DHT22;74070;50.948;6.954;2024-01-11T00:40:27;-4.10;99.90
84008;DHT22;74070;50.948;6.954;2024-01-11T00:42:53;-4.10;99.90
84008;DHT22;74070;50.948;6.954;2024-01-11T00:45:20;-4.30;99.90
84008;DHT22;74070;50.948;6.954;2024-01-11T00:47:47;-4.40;99.90
84008;DHT22;74070;50.948;6.954;2024-01-11T00:50:15;-4.30;99.90
84008;DHT22;74070;50.948;6.954;2024-01-11T00:52:41;-4.40;99.90
84008;DHT22;74070;50.948;6.954;2024-01-11T00:55:09;-4.30;99.90
84008;DHT22;74070;50.948;6.954;2024-01-11T00:57:36;-4.40;99.90
84008;DHT22;74070;50.948;6.954;2024-01-11T01:00:03;-4.40;99.90
84008;DHT22;74070;50.948;6.954;2024-01-11T01:02:30;-4.30;99.90
84008;DHT22;74070;50.948;6.954;2024-01-11T01:04:56;-4.30;99.90
84008;DHT22;74070;50.948;6.954;2024-01-11T01:07:23;-4.30;99.90
84008;DHT22;74070;50.948;6.954;2024-01-11T01:09:50;-4.20;99.90
84008;DHT22;74070;50.948;6.954;2024-01-11T01:12:16;-4.20;99.90
84008;DHT22;74070;50.948;6.954;2024-01-11T01:14:43;-4.20;99.90
84008;DHT22;74070;50.948;6.954;2024-01-11T01:17:10;-4.30;99.90
84008;DHT22;74070;50.948;6.954;2024-01-11T01:19:37;-4.30;99.90
84008;DHT22;74070;50.948;6.954;2024-01-11T01:22:03;-4.30;99.90
84008;DHT22;74070;50.948;6.954;2024-01-11T01:24:30;-4.30;99.90
84008;DHT22;74070;50.948;6.954;2024-01-11T01:26:57;-4.20;99.90
84008;DHT22;74070;50.948;6.954;2024-01-11T01:29:23;-4.20;99.90
84008;DHT22;74070;50.948;6.954;2024-01-11T01:31:50;-4.10;99.90
84008;DHT22;74070;50.948;6.954;2024-01-11T01:34:17;-4.20;99.90
84008;DHT22;74070;50.948;6.954;2024-01-11T01:36:45;-4.10;99.90
84008;DHT22;74070;50.948;6.954;2024-01-11T01:39:11;-4.20;99.90
84008;DHT22;74070;50.948;6.954;2024-01-11T01:41:38;-4.20;99.90
84008;DHT22;74070;50.948;6.954;2024-01-11T01:44:04;-4.20;99.90
84008;DHT22;74070;50.948;6.954;2024-01-11T01:46:31;-4.10;99.90
84008;DHT22;74070;50.948;6.954;2024-01-11T01:48:58;-4.00;99.90
84008;DHT22;74070;50.948;6.954;2024-01-11T01:51:24;-4.10;99.90
84008;DHT22;74070;50.948;6.954;2024-01-11T01:53:52;-4.30;99.90
84008;DHT22;74070;50.948;6.954;2024-01-11T01:56:19;-4.40;99.90
84008;DHT22;74070;50.948;6.954;2024-01-11T01:58:45;-4.30;99.90
84008;DHT22;74070;50.948;6.954;2024-01-11T02:01:12;-4.40;99.90
84008;DHT22;74070;50.948;6.954;2024-01-11T02:03:38;-4.50;99.90
84008;DHT22;74070;50.948;6.954;2024-01-11T02:06:05;-4.50;99.90
84008;DHT22;74070;50.948;6.954;2024-01-11T02:08:31;-4.50;99.90
84008;DHT22;74070;50.948;6.954;2024-01-11T02:10:59;-4.50;99.90
84008;DHT22;74070;50.948;6.954;2024-01-11T02:13:24;-4.40;99.90
84008;DHT22;74070;50.948;6.954;2024-01-11T02:15:51;-4.50;99.90
84008;DHT22;74070;50.948;6.954;2024-01-11T02:18:18;-4.50;99.90
84008;DHT22;74070;50.948;6.954;2024-01-11T02:20:45;-4.60;99.90
84008;DHT22;74070;50.948;6.954;2024-01-11T02:23:12;-4.50;99.90
84008;DHT22;74070;50.948;6.954;2024-01-11T02:25:38;-4.40;99.90
84008;DHT22;74070;50.948;6.954;2024-01-11T02:28:05;-4.40;99.90
84008;DHT22;74070;50.948;6.954;2024-01-11T02:30:31;-4.30;99.90
84008;DHT22;74070;50.948;6.954;2024-01-11T02:32:58;-4.30;99.90
84008;DHT22;74070;50.948;6.954;2024-01-11T02:35:25;-4.20;99.90
84008;DHT22;74070;50.948;6.954;2024-01-11T02:37:52;-4.20;99.90
84008;DHT22;74070;50.948;6.954;2024-01-11T02:40:19;-4.20;99.90
84008;DHT22;74070;50.948;6.954;2024-01-11T02:42:45;-4.20;99.90
84008;DHT22;74070;50.948;6.954;2024-01-11T02:45:12;-4.20;99.90
84008;DHT22;74070;50.948;6.954;2024-01-11T02:47:38;-4.30;99.90
84008;DHT22;74070;50.948;6.954;2024-01-11T02:50:06;-4.30;99.90
84008;DHT22;74070;50.948;6.954;2024-01-11T02:52:33;-4.30;99.90
84008;DHT22;74070;50.948;6.954;2024-01-11T02:55:00;-4.30;99.90
84008;DHT22;74070;50.948;6.954;2024-01-11T02:57:26;-4.30;99.90
84008;DHT22;74070;50.948;6.954;2024-01-11T02:59:53;-4.30;99.90
84008;DHT22;74070;50.948;6.954;2024-01-11T03:02:19;-4.30;99.90
84008;DHT22;74070;50.948;6.954;2024-01-11T03:04:46;-4.30;99.90
84008;DHT22;74070;50.948;6.954;2024-01-11T03:07:13;-4.30;99.90
84008;DHT22;74070;50.948;6.954;2024-01-11T03:09:39;-4.30;99.90
84008;DHT22;74070;50.948;6.954;2024-01-11T03:12:06;-4.30;99.90
84008;DHT22;74070;50.948;6.954;2024-01-11T03:14:32;-4.30;99.90
84008;DHT22;74070;50.948;6.954;2024-01-11T03:17:00;-4.30;99.90
84008;DHT22;74070;50.948;6.954;2024-01-11T03:19:26;-4.40;99.90
84008;DHT22;74070;50.948;6.954;2024-01-11T03:21:53;-4.30;99.90
84008;DHT22;74070;50.948;6.954;2024-01-11T03:24:20;-4.30;99.90
84008;DHT22;74070;50.948;6.954;2024-01-11T03:26:47;-4.30;99.90
84008;DHT22;74070;50.948;6.954;2024-01-11T03:29:13;-4.40;99.90
84008;DHT22;74070;50.948;6.954;2024-01-11T03:31:39;-4.30;99.90
84008;DHT22;74070;50.948;6.954;2024-01-11T03:34:07;-4.40;99.90
84008;DHT22;74070;50.948;6.954;2024-01-11T03:36:33;-4.50;99.90
84008;DHT22;74070;50.948;6.954;2024-01-11T03:39:00;-4.50;99.90
84008;DHT22;74070;50.948;6.954;2024-01-11T03:41:27;-4.60;99.90
84008;DHT22;74070;50.948;6.954;2024-01-11T03:43:54;-4.70;99.90
84008;DHT22;74070;50.948;6.954;2024-01-11T03:46:20;-4.70;99.90
84008;DHT22;74070;50.948;6.954;2024-01-11T03:48:47;-4.80;99.90
84008;DHT22;74070;50.948;6.954;2024-01-11T03:51:15;-4.80;99.90
84008;DHT22;74070;50.948;6.954;2024-01-11T03:53:41;-4.80;99.90
84008;DHT22;74070;50.948;6.954;2024-01-11T03:56:08;-4.90;99.90
84008;DHT22;74070;50.948;6.954;2024-01-11T03:58:35;-5.00;99.90
84008;DHT22;74070;50.948;6.954;2024-01-11T04:01:02;-4.90;99.90
84008;DHT22;74070;50.948;6.954;2024-01-11T04:03:28;-5.10;99.90
84008;DHT22;74070;50.948;6.954;2024-01-11T04:05:55;-5.10;99.90
84008;DHT22;74070;50.948;6.954;2024-01-11T04:08:21;-5.10;99.90
84008;DHT22;74070;50.948;6.954;2024-01-11T04:10:49;-5.00;99.90
84008;DHT22;74070;50.948;6.954;2024-01-11T04:13:16;-4.90;99.90
84008;DHT22;74070;50.948;6.954;2024-01-11T04:15:43;-5.00;99.90
84008;DHT22;74070;50.948;6.954;2024-01-11T04:18:09;-5.00;99.90
84008;DHT22;74070;50.948;6.954;2024-01-11T04:20:36;-5.00;99.90
84008;DHT22;74070;50.948;6.954;2024-01-11T04:23:03;-5.30;99.90
84008;DHT22;74070;50.948;6.954;2024-01-11T04:25:31;-5.40;99.90
84008;DHT22;74070;50.948;6.954;2024-01-11T04:27:57;-5.40;99.90
84008;DHT22;74070;50.948;6.954;2024-01-11T04:30:24;-5.50;99.90
84008;DHT22;74070;50.948;6.954;2024-01-11T04:32:51;-5.60;99.90
84008;DHT22;74070;50.948;6.954;2024-01-11T04:35:18;-5.70;99.90
84008;DHT22;74070;50.948;6.954;2024-01-11T04:37:45;-5.80;99.90
84008;DHT22;74070;50.948;6.954;2024-01-11T04:40:11;-5.60;99.90
84008;DHT22;74070;50.948;6.954;2024-01-11T04:42:38;-5.50;99.90
84008;DHT22;74070;50.948;6.954;2024-01-11T04:45:04;-5.50;99.90
84008;DHT22;74070;50.948;6.954;2024-01-11T04:47:31;-5.50;99.90
84008;DHT22;74070;50.948;6.954;2024-01-11T04:49:58;-5.50;99.90
84008;DHT22;74070;50.948;6.954;2024-01-11T04:52:25;-5.60;99.90
84008;DHT22;74070;50.948;6.954;2024-01-11T04:54:52;-5.60;99.90
84008;DHT22;74070;50.948;6.954;2024-01-11T04:57:18;-5.50;99.90
84008;DHT22;74070;50.948;6.954;2024-01-11T04:59:46;-5.60;99.90
84008;DHT22;74070;50.948;6.954;2024-01-11T05:02:12;-5.70;99.90
84008;DHT22;74070;50.948;6.954;2024-01-11T05:04:39;-5.50;99.90
84008;DHT22;74070;50.948;6.954;2024-01-11T05:07:05;-5.40;99.90
84008;DHT22;74070;50.948;6.954;2024-01-11T05:09:32;-5.50;99.90
84008;DHT22;74070;50.948;6.954;2024-01-11T05:11:59;-5.60;99.90
84008;DHT22;74070;50.948;6.954;2024-01-11T05:14:25;-5.60;99.90
84008;DHT22;74070;50.948;6.954;2024-01-11T05:16:52;-5.50;99.90
84008;DHT22;74070;50.948;6.954;2024-01-11T05:19:18;-5.50;99.90
84008;DHT22;74070;50.948;6.954;2024-01-11T05:21:46;-5.70;99.90
84008;DHT22;74070;50.948;6.954;2024-01-11T05:24:12;-5.70;99.90
84008;DHT22;74070;50.948;6.954;2024-01-11T05:26:39;-5.70;99.90
84008;DHT22;74070;50.948;6.954;2024-01-11T05:29:05;-5.80;99.90
84008;DHT22;74070;50.948;6.954;2024-01-11T05:31:32;-5.60;99.90
84008;DHT22;74070;50.948;6.954;2024-01-11T05:33:59;-5.70;99.90
84008;DHT22;74070;50.948;6.954;2024-01-11T05:36:26;-5.60;99.90
84008;DHT22;74070;50.948;6.954;2024-01-11T05:38:53;-5.60;99.90
84008;DHT22;74070;50.948;6.954;2024-01-11T05:41:19;-5.60;99.90
84008;DHT22;74070;50.948;6.954;2024-01-11T05:43:46;-5.60;99.90
84008;DHT22;74070;50.948;6.954;2024-01-11T05:46:12;-5.60;99.90
84008;DHT22;74070;50.948;6.954;2024-01-11T05:48:39;-5.60;99.90
84008;DHT22;74070;50.948;6.954;2024-01-11T05:51:06;-5.60;99.90
84008;DHT22;74070;50.948;6.954;2024-01-11T05:53:32;-5.60;99.90
84008;DHT22;74070;50.948;6.954;2024-01-11T05:55:59;-5.60;99.90
84008;DHT22;74070;50.948;6.954;2024-01-11T05:58:25;-5.70;99.90
84008;DHT22;74070;50.948;6.954;2024-01-11T06:00:52;-5.80;99.90
84008;DHT22;74070;50.948;6.954;2024-01-11T06:03:19;-5.90;99.90
84008;DHT22;74070;50.948;6.954;2024-01-11T06:05:45;-5.80;99.90
84008;DHT22;74070;50.948;6.954;2024-01-11T06:08:12;-6.20;99.90
84008;DHT22;74070;50.948;6.954;2024-01-11T06:10:39;-5.70;99.90
84008;DHT22;74070;50.948;6.954;2024-01-11T06:13:05;-5.80;99.90
84008;DHT22;74070;50.948;6.954;2024-01-11T06:15:32;-5.80;99.90
84008;DHT22;74070;50.948;6.954;2024-01-11T06:17:58;-5.80;99.90
84008;DHT22;74070;50.948;6.954;2024-01-11T06:20:25;-5.90;99.90
84008;DHT22;74070;50.948;6.954;2024-01-11T06:22:52;-6.00;99.90
84008;DHT22;74070;50.948;6.954;2024-01-11T06:25:20;-5.90;99.90
84008;DHT22;74070;50.948;6.954;2024-01-11T06:27:46;-6.00;99.90
84008;DHT22;74070;50.948;6.954;2024-01-11T06:30:13;-5.90;99.90
84008;DHT22;74070;50.948;6.954;2024-01-11T06:32:40;-6.00;99.90
84008;DHT22;74070;50.948;6.954;2024-01-11T06:35:06;-6.00;99.90
84008;DHT22;74070;50.948;6.954;2024-01-11T06:37:34;-5.90;99.90
84008;DHT22;74070;50.948;6.954;2024-01-11T06:40:00;-6.00;99.90
84008;DHT22;74070;50.948;6.954;2024-01-11T06:42:27;-5.90;99.90
84008;DHT22;74070;50.948;6.954;2024-01-11T06:44:54;-5.90;99.90
84008;DHT22;74070;50.948;6.954;2024-01-11T06:47:21;-5.90;99.90
84008;DHT22;74070;50.948;6.954;2024-01-11T06:49:48;-5.90;99.90
84008;DHT22;74070;50.948;6.954;2024-01-11T06:52:14;-5.90;99.90
84008;DHT22;74070;50.948;6.954;2024-01-11T06:54:41;-5.90;99.90
84008;DHT22;74070;50.948;6.954;2024-01-11T06:57:08;-5.90;99.90
84008;DHT22;74070;50.948;6.954;2024-01-11T06:59:35;-5.90;99.90
84008;DHT22;74070;50.948;6.954;2024-01-11T07:02:02;-5.80;99.90
84008;DHT22;74070;50.948;6.954;2024-01-11T07:04:29;-5.90;99.90
84008;DHT22;74070;50.948;6.954;2024-01-11T07:06:56;-5.80;99.90
84008;DHT22;74070;50.948;6.954;2024-01-11T07:09:22;-5.10;99.90
84008;DHT22;74070;50.948;6.954;2024-01-11T07:11:49;-5.80;99.90
84008;DHT22;74070;50.948;6.954;2024-01-11T07:14:15;-5.80;99.90
84008;DHT22;74070;50.948;6.954;2024-01-11T07:16:42;-5.80;99.90
84008;DHT22;74070;50.948;6.954;2024-01-11T07:19:09;-5.80;99.90
84008;DHT22;74070;50.948;6.954;2024-01-11T07:21:35;-5.80;99.90
84008;DHT22;74070;50.948;6.954;2024-01-11T07:24:02;-5.80;99.90
84008;DHT22;74070;50.948;6.954;2024-01-11T07:26:28;-5.80;99.90
84008;DHT22;74070;50.948;6.954;2024-01-11T07:28:55;-5.90;99.90
84008;DHT22;74070;50.948;6.954;2024-01-11T07:31:22;-5.90;99.90
84008;DHT22;74070;50.948;6.954;2024-01-11T07:33:48;-5.80;99.90
84008;DHT22;74070;50.948;6.954;2024-01-11T07:36:15;-5.80;99.90
84008;DHT22;74070;50.948;6.954;2024-01-11T07:38:41;-5.90;99.90
84008;DHT22;74070;50.948;6.954;2024-01-11T07:41:08;-6.00;99.90
84008;DHT22;74070;50.948;6.954;2024-01-11T07:43:34;-5.90;99.90
84008;DHT22;74070;50.948;6.954;2024-01-11T07:46:02;-5.90;99.90
84008;DHT22;74070;50.948;6.954;2024-01-11T07:48:29;-5.90;99.90
84008;DHT22;74070;50.948;6.954;2024-01-11T07:50:55;-5.90;99.90
84008;DHT22;74070;50.948;6.954;2024-01-11T07:53:22;-5.90;99.90
84008;DHT22;74070;50.948;6.954;2024-01-11T07:55:49;-5.90;99.90
84008;DHT22;74070;50.948;6.954;2024-01-11T07:58:15;-5.80;99.90
84008;DHT22;74070;50.948;6.954;2024-01-11T08:00:43;-5.90;99.90
84008;DHT22;74070;50.948;6.954;2024-01-11T08:03:10;-5.90;99.90
84008;DHT22;74070;50.948;6.954;2024-01-11T08:05:36;-6.00;99.90
84008;DHT22;74070;50.948;6.954;2024-01-11T08:08:03;-6.00;99.90
84008;DHT22;74070;50.948;6.954;2024-01-11T08:10:30;-6.00;99.90
84008;DHT22;74070;50.948;6.954;2024-01-11T08:12:57;-5.90;99.90
84008;DHT22;74070;50.948;6.954;2024-01-11T08:15:24;-6.00;99.90
84008;DHT22;74070;50.948;6.954;2024-01-11T08:17:51;-6.00;99.90
84008;DHT22;74070;50.948;6.954;2024-01-11T08:20:17;-6.00;99.90
84008;DHT22;74070;50.948;6.954;2024-01-11T08:22:44;-6.00;99.90
84008;DHT22;74070;50.948;6.954;2024-01-11T08:25:11;-5.90;99.90
84008;DHT22;74070;50.948;6.954;2024-01-11T08:27:39;-6.00;99.90
84008;DHT22;74070;50.948;6.954;2024-01-11T08:30:06;-6.00;99.90
84008;DHT22;74070;50.948;6.954;2024-01-11T08:32:33;-6.00;99.90
84008;DHT22;74070;50.948;6.954;2024-01-11T08:35:00;-5.90;99.90
84008;DHT22;74070;50.948;6.954;2024-01-11T08:37:26;-5.80;99.90
84008;DHT22;74070;50.948;6.954;2024-01-11T08:39:53;-5.90;99.90
84008;DHT22;74070;50.948;6.954;2024-01-11T08:42:20;-5.70;99.90
84008;DHT22;74070;50.948;6.954;2024-01-11T08:44:47;-5.70;99.90
84008;DHT22;74070;50.948;6.954;2024-01-11T08:47:14;-5.70;99.90
84008;DHT22;74070;50.948;6.954;2024-01-11T08:49:41;-5.70;99.90
84008;DHT22;74070;50.948;6.954;2024-01-11T08:52:07;-5.60;99.90
84008;DHT22;74070;50.948;6.954;2024-01-11T08:54:35;-5.50;99.90
84008;DHT22;74070;50.948;6.954;2024-01-11T08:57:01;-5.50;99.90
84008;DHT22;74070;50.948;6.954;2024-01-11T08:59:28;-5.40;99.90
84008;DHT22;74070;50.948;6.954;2024-01-11T09:01:54;-5.20;99.90
84008;DHT22;74070;50.948;6.954;2024-01-11T09:04:21;-4.10;99.90
84008;DHT22;74070;50.948;6.954;2024-01-11T09:06:48;-5.00;99.90
84008;DHT22;74070;50.948;6.954;2024-01-11T09:09:14;-5.00;99.90
84008;DHT22;74070;50.948;6.954;2024-01-11T09:11:41;-4.90;99.90
84008;DHT22;74070;50.948;6.954;2024-01-11T09:14:07;-4.80;99.90
84008;DHT22;74070;50.948;6.954;2024-01-11T09:16:34;-4.70;99.90
84008;DHT22;74070;50.948;6.954;2024-01-11T09:19:01;-4.70;99.90
84008;DHT22;74070;50.948;6.954;2024-01-11T09:21:29;-4.60;99.90
84008;DHT22;74070;50.948;6.954;2024-01-11T09:23:55;-4.70;99.90
84008;DHT22;74070;50.948;6.954;2024-01-11T09:26:22;-4.60;99.90
84008;DHT22;74070;50.948;6.954;2024-01-11T09:28:49;-4.60;99.90
84008;DHT22;74070;50.948;6.954;2024-01-11T09:31:15;-4.50;99.90
84008;DHT22;74070;50.948;6.954;2024-01-11T09:33:42;-4.50;99.90
84008;DHT22;74070;50.948;6.954;2024-01-11T09:36:08;-4.50;99.90
84008;DHT22;74070;50.948;6.954;2024-01-11T09:38:35;-4.40;99.90
84008;DHT22;74070;50.948;6.954;2024-01-11T09:41:07;-4.30;99.90
84008;DHT22;74070;50.948;6.954;2024-01-11T09:43:34;-4.30;99.90
84008;DHT22;74070;50.948;6.954;2024-01-11T09:46:03;-3.90;99.90
84008;DHT22;74070;50.948;6.954;2024-01-11T09:48:29;-4.20;99.90
84008;DHT22;74070;50.948;6.954;2024-01-11T09:50:56;-4.00;99.90
84008;DHT22;74070;50.948;6.954;2024-01-11T09:53:23;-4.00;99.90
84008;DHT22;74070;50.948;6.954;2024-01-11T09:55:50;-4.10;99.90
84008;DHT22;74070;50.948;6.954;2024-01-11T09:58:17;-3.90;99.90
84008;DHT22;74070;50.948;6.954;2024-01-11T10:00:43;-3.90;99.90
84008;DHT22;74070;50.948;6.954;2024-01-11T10:03:10;-3.80;99.90
84008;DHT22;74070;50.948;6.954;2024-01-11T10:05:36;-3.60;99.90
84008;DHT22;74070;50.948;6.954;2024-01-11T10:08:03;-3.50;99.90
84008;DHT22;74070;50.948;6.954;2024-01-11T10:10:30;-3.50;99.90
84008;DHT22;74070;50.948;6.954;2024-01-11T10:12:57;-3.40;99.90
84008;DHT22;74070;50.948;6.954;2024-01-11T10:15:24;-3.50;99.90
84008;DHT22;74070;50.948;6.954;2024-01-11T10:17:50;-3.40;99.90
84008;DHT22;74070;50.948;6.954;2024-01-11T10:20:17;-3.30;99.90
84008;DHT22;74070;50.948;6.954;2024-01-11T10:22:44;-3.20;99.90
84008;DHT22;74070;50.948;6.954;2024-01-11T10:25:12;-3.10;99.90
84008;DHT22;74070;50.948;6.954;2024-01-11T10:27:40;-3.10;99.90
84008;DHT22;74070;50.948;6.954;2024-01-11T10:30:12;-3.00;99.90
84008;DHT22;74070;50.948;6.954;2024-01-11T10:32:40;-3.00;99.90
84008;DHT22;74070;50.948;6.954;2024-01-11T10:35:06;-3.00;99.90
84008;DHT22;74070;50.948;6.954;2024-01-11T10:37:33;-2.90;99.90
84008;DHT22;74070;50.948;6.954;2024-01-11T10:40:03;-2.90;99.90
84008;DHT22;74070;50.948;6.954;2024-01-11T10:42:31;-2.80;99.90
84008;DHT22;74070;50.948;6.954;2024-01-11T10:44:56;-2.80;99.90
84008;DHT22;74070;50.948;6.954;2024-01-11T10:47:24;-2.80;99.90
84008;DHT22;74070;50.948;6.954;2024-01-11T10:49:50;-2.60;99.90
84008;DHT22;74070;50.948;6.954;2024-01-11T10:52:16;-2.50;99.90
84008;DHT22;74070;50.948;6.954;2024-01-11T10:54:43;-2.60;99.90
84008;DHT22;74070;50.948;6.954;2024-01-11T10:57:10;-2.50;99.90
84008;DHT22;74070;50.948;6.954;2024-01-11T10:59:36;-2.50;99.90
84008;DHT22;74070;50.948;6.954;2024-01-11T11:02:05;-2.50;99.90
84008;DHT22;74070;50.948;6.954;2024-01-11T11:04:31;-2.50;99.90
84008;DHT22;74070;50.948;6.954;2024-01-11T11:06:58;-2.20;99.90
84008;DHT22;74070;50.948;6.954;2024-01-11T11:09:26;-2.20;99.90
84008;DHT22;74070;50.948;6.954;2024-01-11T11:11:55;-2.20;99.90
84008;DHT22;74070;50.948;6.954;2024-01-11T11:14:20;-2.10;99.90
84008;DHT22;74070;50.948;6.954;2024-01-11T11:16:47;-2.00;99.90
84008;DHT22;74070;50.948;6.954;2024-01-11T11:19:14;-2.00;99.90
84008;DHT22;74070;50.948;6.954;2024-01-11T11:21:43;-2.00;99.90
84008;DHT22;74070;50.948;6.954;2024-01-11T11:24:12;-1.90;99.90
84008;DHT22;74070;50.948;6.954;2024-01-11T11:26:37;-2.50;99.90
84008;DHT22;74070;50.948;6.954;2024-01-11T11:29:04;-1.90;99.90
84008;DHT22;74070;50.948;6.954;2024-01-11T11:31:36;-1.70;99.90
84008;DHT22;74070;50.948;6.954;2024-01-11T11:34:05;-1.80;99.90
84008;DHT22;74070;50.948;6.954;2024-01-11T11:36:33;-1.80;99.90
84008;DHT22;74070;50.948;6.954;2024-01-11T11:38:59;-1.80;99.90
84008;DHT22;74070;50.948;6.954;2024-01-11T11:41:25;-1.70;99.90
84008;DHT22;74070;50.948;6.954;2024-01-11T11:43:52;-1.70;99.90
84008;DHT22;74070;50.948;6.954;2024-01-11T11:46:18;-1.70;99.90
84008;DHT22;74070;50.948;6.954;2024-01-11T11:48:49;-1.80;99.90
84008;DHT22;74070;50.948;6.954;2024-01-11T11:51:15;-1.80;99.90
84008;DHT22;74070;50.948;6.954;2024-01-11T11:53:42;-1.70;99.90
84008;DHT22;74070;50.948;6.954;2024-01-11T11:56:09;-1.60;99.90
84008;DHT22;74070;50.948;6.954;2024-01-11T11:58:36;-1.50;99.90
84008;DHT22;74070;50.948;6.954;2024-01-11T12:01:03;-1.40;99.90
84008;DHT22;74070;50.948;6.954;2024-01-11T12:03:32;-1.40;99.90
84008;DHT22;74070;50.948;6.954;2024-01-11T12:05:58;-1.20;99.90
84008;DHT22;74070;50.948;6.954;2024-01-11T12:08:25;-1.20;99.90
84008;DHT22;74070;50.948;6.954;2024-01-11T12:10:52;-1.20;99.90
84008;DHT22;74070;50.948;6.954;2024-01-11T12:13:19;-1.10;99.90
84008;DHT22;74070;50.948;6.954;2024-01-11T12:15:45;-1.00;99.90
84008;DHT22;74070;50.948;6.954;2024-01-11T12:18:12;-1.00;99.90
84008;DHT22;74070;50.948;6.954;2024-01-11T12:20:39;-1.00;99.90
84008;DHT22;74070;50.948;6.954;2024-01-11T12:23:05;-1.00;99.90
84008;DHT22;74070;50.948;6.954;2024-01-11T12:25:32;-0.90;99.90
84008;DHT22;74070;50.948;6.954;2024-01-11T12:28:00;-0.90;99.90
84008;DHT22;74070;50.948;6.954;2024-01-11T12:30:26;-1.00;99.90
84008;DHT22;74070;50.948;6.954;2024-01-11T12:32:53;-0.90;99.90
84008;DHT22;74070;50.948;6.954;2024-01-11T12:35:20;-0.80;99.90
84008;DHT22;74070;50.948;6.954;2024-01-11T12:37:59;-0.70;99.90
84008;DHT22;74070;50.948;6.954;2024-01-11T12:40:25;-0.70;99.90
84008;DHT22;74070;50.948;6.954;2024-01-11T12:42:55;-0.70;99.90
84008;DHT22;74070;50.948;6.954;2024-01-11T12:45:21;-0.70;99.90
84008;DHT22;74070;50.948;6.954;2024-01-11T12:47:49;-0.60;99.90
84008;DHT22;74070;50.948;6.954;2024-01-11T12:50:15;-0.60;99.90
84008;DHT22;74070;50.948;6.954;2024-01-11T12:52:42;-0.50;99.90
84008;DHT22;74070;50.948;6.954;2024-01-11T12:55:17;-0.50;99.90
84008;DHT22;74070;50.948;6.954;2024-01-11T12:57:35;-0.40;99.90
84008;DHT22;74070;50.948;6.954;2024-01-11T13:00:10;-0.40;99.90
84008;DHT22;74070;50.948;6.954;2024-01-11T13:02:36;-0.40;99.90
84008;DHT22;74070;50.948;6.954;2024-01-11T13:05:03;-0.40;99.90
84008;DHT22;74070;50.948;6.954;2024-01-11T13:07:31;-0.30;99.90
84008;DHT22;74070;50.948;6.954;2024-01-11T13:09:57;-0.20;99.90
84008;DHT22;74070;50.948;6.954;2024-01-11T13:12:24;-0.10;99.90
84008;DHT22;74070;50.948;6.954;2024-01-11T13:14:50;-0.10;99.90
84008;DHT22;74070;50.948;6.954;2024-01-11T13:17:17;-0.10;99.90
84008;DHT22;74070;50.948;6.954;2024-01-11T13:19:44;-0.10;99.90
84008;DHT22;74070;50.948;6.954;2024-01-11T13:22:10;-0.10;99.90
84008;DHT22;74070;50.948;6.954;2024-01-11T13:24:37;0.00;99.90
84008;DHT22;74070;50.948;6.954;2024-01-11T13:27:03;0.10;99.90
84008;DHT22;74070;50.948;6.954;2024-01-11T13:29:30;0.20;99.90
84008;DHT22;74070;50.948;6.954;2024-01-11T13:31:57;0.10;99.90
84008;DHT22;74070;50.948;6.954;2024-01-11T13:34:23;0.20;99.90
84008;DHT22;74070;50.948;6.954;2024-01-11T13:36:50;0.40;99.90
84008;DHT22;74070;50.948;6.954;2024-01-11T13:39:16;0.40;99.90
84008;DHT22;74070;50.948;6.954;2024-01-11T13:41:43;0.40;99.90
84008;DHT22;74070;50.948;6.954;2024-01-11T13:44:10;0.40;99.90
84008;DHT22;74070;50.948;6.954;2024-01-11T13:46:36;0.50;99.90
84008;DHT22;74070;50.948;6.954;2024-01-11T13:49:03;0.50;99.90
84008;DHT22;74070;50.948;6.954;2024-01-11T13:51:29;0.50;99.90
84008;DHT22;74070;50.948;6.954;2024-01-11T13:53:56;0.50;99.90
84008;DHT22;74070;50.948;6.954;2024-01-11T13:56:23;0.50;99.90
84008;DHT22;74070;50.948;6.954;2024-01-11T13:58:49;0.50;99.90
84008;DHT22;74070;50.948;6.954;2024-01-11T14:01:16;0.50;99.90
84008;DHT22;74070;50.948;6.954;2024-01-11T14:03:42;0.60;99.90
84008;DHT22;74070;50.948;6.954;2024-01-11T14:06:09;0.60;99.90
84008;DHT22;74070;50.948;6.954;2024-01-11T14:08:36;0.60;99.90
84008;DHT22;74070;50.948;6.954;2024-01-11T14:11:03;0.60;99.90
84008;DHT22;74070;50.948;6.954;2024-01-11T14:13:29;0.60;99.90
84008;DHT22;74070;50.948;6.954;2024-01-11T14:15:55;0.70;99.90
84008;DHT22;74070;50.948;6.954;2024-01-11T14:18:22;0.80;99.90
84008;DHT22;74070;50.948;6.954;2024-01-11T14:20:49;1.50;99.90
84008;DHT22;74070;50.948;6.954;2024-01-11T14:23:15;2.90;99.90
84008;DHT22;74070;50.948;6.954;2024-01-11T14:25:42;3.80;99.90
84008;DHT22;74070;50.948;6.954;2024-01-11T14:28:08;3.90;99.90
84008;DHT22;74070;50.948;6.954;2024-01-11T14:30:35;4.10;99.90
84008;DHT22;74070;50.948;6.954;2024-01-11T14:33:02;3.90;99.90
84008;DHT22;74070;50.948;6.954;2024-01-11T14:35:28;3.90;99.90
84008;DHT22;74070;50.948;6.954;2024-01-11T14:37:55;3.70;99.90
84008;DHT22;74070;50.948;6.954;2024-01-11T14:40:22;4.40;99.90
84008;DHT22;74070;50.948;6.954;2024-01-11T14:42:50;4.30;99.90
84008;DHT22;74070;50.948;6.954;2024-01-11T14:45:16;4.30;99.90
84008;DHT22;74070;50.948;6.954;2024-01-11T14:47:43;4.00;99.90
84008;DHT22;74070;50.948;6.954;2024-01-11T14:50:09;3.60;99.90
84008;DHT22;74070;50.948;6.954;2024-01-11T14:52:36;3.70;99.90
84008;DHT22;74070;50.948;6.954;2024-01-11T14:55:03;3.90;99.90
84008;DHT22;74070;50.948;6.954;2024-01-11T14:57:29;3.90;99.90
84008;DHT22;74070;50.948;6.954;2024-01-11T14:59:56;3.30;99.90
84008;DHT22;74070;50.948;6.954;2024-01-11T15:02:23;3.50;99.90
84008;DHT22;74070;50.948;6.954;2024-01-11T15:04:49;3.60;99.90
84008;DHT22;74070;50.948;6.954;2024-01-11T15:07:16;3.30;99.90
84008;DHT22;74070;50.948;6.954;2024-01-11T15:09:42;3.30;99.90
84008;DHT22;74070;50.948;6.954;2024-01-11T15:12:09;3.30;99.90
84008;DHT22;74070;50.948;6.954;2024-01-11T15:14:36;3.10;99.90
84008;DHT22;74070;50.948;6.954;2024-01-11T15:17:02;3.00;99.90
84008;DHT22;74070;50.948;6.954;2024-01-11T15:19:29;2.80;99.90
84008;DHT22;74070;50.948;6.954;2024-01-11T15:21:56;2.30;99.90
84008;DHT22;74070;50.948;6.954;2024-01-11T15:24:24;2.20;99.90
84008;DHT22;74070;50.948;6.954;2024-01-11T15:26:50;2.10;99.90
84008;DHT22;74070;50.948;6.954;2024-01-11T15:29:17;2.10;99.90